sensor_id;sensor_type;location;lat;lon;timestamp;temperature;humidity
79750;SHT31;69233;51.968;5.658;2023-12-20T00:01:13;9.3;75.5
79750;SHT31;69233;51.968;5.658;2023-12-20T00:03:41;9.3;75.1
79750;SHT31;69233;51.968;5.658;2023-12-20T00:06:10;9.4;75.0
79750;SHT31;69233;51.968;5.658;2023-12-20T00:08:39;9.4;74.7
79750;SHT31;69233;51.968;5.658;2023-12-20T00:11:07;9.4;74.2
79750;SHT31;69233;51.968;5.658;2023-12-20T00:13:36;9.4;74.2
79750;SHT31;69233;51.968;5.658;2023-12-20T00:16:05;9.4;74.2
79750;SHT31;69233;51.968;5.658;2023-12-20T00:18:35;9.4;73.6
79750;SHT31;69233;51.968;5.658;2023-12-20T00:21:05;9.4;73.6
79750;SHT31;69233;51.968;5.658;2023-12-20T00:23:33;9.3;73.9
79750;SHT31;69233;51.968;5.658;2023-12-20T00:26:02;9.3;73.5
79750;SHT31;69233;51.968;5.658;2023-12-20T00:28:31;9.3;73.6
79750;SHT31;69233;51.968;5.658;2023-12-20T00:30:59;9.2;73.3
79750;SHT31;69233;51.968;5.658;2023-12-20T00:33:28;9.2;73.6
79750;SHT31;69233;51.968;5.658;2023-12-20T00:35:57;9.2;73.4
79750;SHT31;69233;51.968;5.658;2023-12-20T00:38:26;9.1;73.3
79750;SHT31;69233;51.968;5.658;2023-12-20T00:40:54;9.1;73.5
79750;SHT31;69233;51.968;5.658;2023-12-20T00:43:24;9.1;73.5
79750;SHT31;69233;51.968;5.658;2023-12-20T00:45:54;9.0;73.5
79750;SHT31;69233;51.968;5.658;2023-12-20T00:48:23;9.0;73.5
79750;SHT31;69233;51.968;5.658;2023-12-20T00:50:53;9.0;73.6
79750;SHT31;69233;51.968;5.658;2023-12-20T00:53:22;8.9;73.7
79750;SHT31;69233;51.968;5.658;2023-12-20T00:55:50;8.9;73.7
79750;SHT31;69233;51.968;5.658;2023-12-20T00:58:21;8.9;74.1
79750;SHT31;69233;51.968;5.658;2023-12-20T01:00:51;8.8;74.4
79750;SHT31;69233;51.968;5.658;2023-12-20T01:03:20;8.8;74.2
79750;SHT31;69233;51.968;5.658;2023-12-20T01:05:49;8.7;74.2
79750;SHT31;69233;51.968;5.658;2023-12-20T01:08:18;8.7;74.7
79750;SHT31;69233;51.968;5.658;2023-12-20T01:10:46;8.7;74.3
79750;SHT31;69233;51.968;5.658;2023-12-20T01:13:15;8.7;74.4
79750;SHT31;69233;51.968;5.658;2023-12-20T01:15:44;8.6;74.4
79750;SHT31;69233;51.968;5.658;2023-12-20T01:18:13;8.6;74.2
79750;SHT31;69233;51.968;5.658;2023-12-20T01:20:42;8.6;74.5
79750;SHT31;69233;51.968;5.658;2023-12-20T01:23:11;8.6;74.6
79750;SHT31;69233;51.968;5.658;2023-12-20T01:25:41;8.5;74.4
79750;SHT31;69233;51.968;5.658;2023-12-20T01:28:09;8.5;74.6
79750;SHT31;69233;51.968;5.658;2023-12-20T01:30:38;8.5;74.5
79750;SHT31;69233;51.968;5.658;2023-12-20T01:33:06;8.5;74.5
79750;SHT31;69233;51.968;5.658;2023-12-20T01:35:35;8.5;74.6
79750;SHT31;69233;51.968;5.658;2023-12-20T01:38:03;8.4;74.5
79750;SHT31;69233;51.968;5.658;2023-12-20T01:40:32;8.4;74.8
79750;SHT31;69233;51.968;5.658;2023-12-20T01:43:04;8.4;74.7
79750;SHT31;69233;51.968;5.658;2023-12-20T01:45:35;8.4;74.9
79750;SHT31;69233;51.968;5.658;2023-12-20T01:48:05;8.4;74.8
79750;SHT31;69233;51.968;5.658;2023-12-20T01:50:36;8.4;74.9
79750;SHT31;69233;51.968;5.658;2023-12-20T01:53:07;8.4;75.1
79750;SHT31;69233;51.968;5.658;2023-12-20T01:55:39;8.4;75.4
79750;SHT31;69233;51.968;5.658;2023-12-20T01:58:10;8.3;75.5
79750;SHT31;69233;51.968;5.658;2023-12-20T02:00:40;8.3;75.3
79750;SHT31;69233;51.968;5.658;2023-12-20T02:03:09;8.3;76.0
79750;SHT31;69233;51.968;5.658;2023-12-20T02:05:39;8.3;76.1
79750;SHT31;69233;51.968;5.658;2023-12-20T02:08:08;8.4;75.8
79750;SHT31;69233;51.968;5.658;2023-12-20T02:10:38;8.4;76.0
79750;SHT31;69233;51.968;5.658;2023-12-20T02:13:10;8.4;76.2
79750;SHT31;69233;51.968;5.658;2023-12-20T02:15:38;8.4;76.3
79750;SHT31;69233;51.968;5.658;2023-12-20T02:18:10;8.4;76.2
79750;SHT31;69233;51.968;5.658;2023-12-20T02:20:41;8.4;76.5
79750;SHT31;69233;51.968;5.658;2023-12-20T02:23:10;8.4;76.0
79750;SHT31;69233;51.968;5.658;2023-12-20T02:25:38;8.5;75.6
79750;SHT31;69233;51.968;5.658;2023-12-20T02:28:07;8.5;75.9
79750;SHT31;69233;51.968;5.658;2023-12-20T02:30:38;8.5;76.1
79750;SHT31;69233;51.968;5.658;2023-12-20T02:33:08;8.5;75.9
79750;SHT31;69233;51.968;5.658;2023-12-20T02:35:38;8.5;76.0
79750;SHT31;69233;51.968;5.658;2023-12-20T02:38:07;8.6;75.6
79750;SHT31;69233;51.968;5.658;2023-12-20T02:40:35;8.6;75.8
79750;SHT31;69233;51.968;5.658;2023-12-20T02:43:04;8.6;75.8
79750;SHT31;69233;51.968;5.658;2023-12-20T02:45:33;8.6;76.1
79750;SHT31;69233;51.968;5.658;2023-12-20T02:48:01;8.6;75.9
79750;SHT31;69233;51.968;5.658;2023-12-20T02:50:30;8.7;75.7
79750;SHT31;69233;51.968;5.658;2023-12-20T02:52:59;8.7;75.2
79750;SHT31;69233;51.968;5.658;2023-12-20T02:55:27;8.8;75.4
79750;SHT31;69233;51.968;5.658;2023-12-20T02:57:56;8.9;74.8
79750;SHT31;69233;51.968;5.658;2023-12-20T03:00:24;8.9;74.1
79750;SHT31;69233;51.968;5.658;2023-12-20T03:02:53;8.9;73.5
79750;SHT31;69233;51.968;5.658;2023-12-20T03:05:21;9.0;73.2
79750;SHT31;69233;51.968;5.658;2023-12-20T03:07:50;8.9;72.8
79750;SHT31;69233;51.968;5.658;2023-12-20T03:10:19;8.9;73.2
79750;SHT31;69233;51.968;5.658;2023-12-20T03:12:47;8.9;73.3
79750;SHT31;69233;51.968;5.658;2023-12-20T03:15:16;8.9;73.5
79750;SHT31;69233;51.968;5.658;2023-12-20T03:17:44;8.9;73.6
79750;SHT31;69233;51.968;5.658;2023-12-20T03:20:13;8.8;73.8
79750;SHT31;69233;51.968;5.658;2023-12-20T03:22:43;8.8;73.9
79750;SHT31;69233;51.968;5.658;2023-12-20T03:25:12;8.8;73.8
79750;SHT31;69233;51.968;5.658;2023-12-20T03:27:41;8.8;73.9
79750;SHT31;69233;51.968;5.658;2023-12-20T03:30:12;8.8;74.1
79750;SHT31;69233;51.968;5.658;2023-12-20T03:32:41;8.8;74.4
79750;SHT31;69233;51.968;5.658;2023-12-20T03:35:10;8.8;74.4
79750;SHT31;69233;51.968;5.658;2023-12-20T03:37:38;8.7;74.3
79750;SHT31;69233;51.968;5.658;2023-12-20T03:40:10;8.7;74.4
79750;SHT31;69233;51.968;5.658;2023-12-20T03:42:38;8.7;74.6
79750;SHT31;69233;51.968;5.658;2023-12-20T03:45:08;8.7;74.5
79750;SHT31;69233;51.968;5.658;2023-12-20T03:47:37;8.7;74.3
79750;SHT31;69233;51.968;5.658;2023-12-20T03:50:06;8.7;74.8
79750;SHT31;69233;51.968;5.658;2023-12-20T03:52:35;8.7;74.8
79750;SHT31;69233;51.968;5.658;2023-12-20T03:55:04;8.7;74.7
79750;SHT31;69233;51.968;5.658;2023-12-20T03:57:33;8.7;74.6
79750;SHT31;69233;51.968;5.658;2023-12-20T04:00:01;8.7;74.6
79750;SHT31;69233;51.968;5.658;2023-12-20T04:02:31;8.8;74.9
79750;SHT31;69233;51.968;5.658;2023-12-20T04:05:00;8.8;74.9
79750;SHT31;69233;51.968;5.658;2023-12-20T04:07:31;8.8;74.7
79750;SHT31;69233;51.968;5.658;2023-12-20T04:10:02;8.8;75.1
79750;SHT31;69233;51.968;5.658;2023-12-20T04:12:34;8.8;75.1
79750;SHT31;69233;51.968;5.658;2023-12-20T04:15:05;8.8;74.7
79750;SHT31;69233;51.968;5.658;2023-12-20T04:17:36;8.8;74.6
79750;SHT31;69233;51.968;5.658;2023-12-20T04:20:05;8.8;74.9
79750;SHT31;69233;51.968;5.658;2023-12-20T04:22:34;8.9;74.6
79750;SHT31;69233;51.968;5.658;2023-12-20T04:25:02;8.9;74.1
79750;SHT31;69233;51.968;5.658;2023-12-20T04:27:31;8.9;74.1
79750;SHT31;69233;51.968;5.658;2023-12-20T04:30:00;8.9;74.6
79750;SHT31;69233;51.968;5.658;2023-12-20T04:32:29;8.9;74.4
79750;SHT31;69233;51.968;5.658;2023-12-20T04:34:58;8.9;74.9
79750;SHT31;69233;51.968;5.658;2023-12-20T04:37:26;8.9;74.2
79750;SHT31;69233;51.968;5.658;2023-12-20T04:39:55;8.9;74.7
79750;SHT31;69233;51.968;5.658;2023-12-20T04:42:24;8.9;74.7
79750;SHT31;69233;51.968;5.658;2023-12-20T04:44:53;8.9;75.1
79750;SHT31;69233;51.968;5.658;2023-12-20T04:47:21;9.0;75.0
79750;SHT31;69233;51.968;5.658;2023-12-20T04:49:50;9.0;74.4
79750;SHT31;69233;51.968;5.658;2023-12-20T04:52:19;9.0;75.0
79750;SHT31;69233;51.968;5.658;2023-12-20T04:54:47;9.1;74.5
79750;SHT31;69233;51.968;5.658;2023-12-20T04:57:16;9.1;74.5
79750;SHT31;69233;51.968;5.658;2023-12-20T04:59:44;9.1;74.2
79750;SHT31;69233;51.968;5.658;2023-12-20T05:02:13;9.1;75.0
79750;SHT31;69233;51.968;5.658;2023-12-20T05:04:42;9.1;74.4
79750;SHT31;69233;51.968;5.658;2023-12-20T05:07:10;9.2;73.8
79750;SHT31;69233;51.968;5.658;2023-12-20T05:09:39;9.2;73.6
79750;SHT31;69233;51.968;5.658;2023-12-20T05:12:10;9.2;73.2
79750;SHT31;69233;51.968;5.658;2023-12-20T05:14:39;9.2;74.2
79750;SHT31;69233;51.968;5.658;2023-12-20T05:17:07;9.3;74.1
79750;SHT31;69233;51.968;5.658;2023-12-20T05:19:36;9.3;74.1
79750;SHT31;69233;51.968;5.658;2023-12-20T05:22:05;9.3;72.7
79750;SHT31;69233;51.968;5.658;2023-12-20T05:24:34;9.3;73.6
79750;SHT31;69233;51.968;5.658;2023-12-20T05:27:03;9.4;73.8
79750;SHT31;69233;51.968;5.658;2023-12-20T05:29:32;9.4;72.8
79750;SHT31;69233;51.968;5.658;2023-12-20T05:32:00;9.4;73.6
79750;SHT31;69233;51.968;5.658;2023-12-20T05:34:31;9.4;73.0
79750;SHT31;69233;51.968;5.658;2023-12-20T05:37:00;9.4;71.9
79750;SHT31;69233;51.968;5.658;2023-12-20T05:39:29;9.5;72.7
79750;SHT31;69233;51.968;5.658;2023-12-20T05:41:58;9.5;72.6
79750;SHT31;69233;51.968;5.658;2023-12-20T05:44:29;9.5;72.7
79750;SHT31;69233;51.968;5.658;2023-12-20T05:46:57;9.5;72.8
79750;SHT31;69233;51.968;5.658;2023-12-20T05:49:26;9.6;72.7
79750;SHT31;69233;51.968;5.658;2023-12-20T05:51:54;9.6;73.0
79750;SHT31;69233;51.968;5.658;2023-12-20T05:54:23;9.7;71.9
79750;SHT31;69233;51.968;5.658;2023-12-20T05:56:52;9.8;71.4
79750;SHT31;69233;51.968;5.658;2023-12-20T05:59:20;9.8;71.7
79750;SHT31;69233;51.968;5.658;2023-12-20T06:01:49;9.8;70.7
79750;SHT31;69233;51.968;5.658;2023-12-20T06:04:17;9.8;71.5
79750;SHT31;69233;51.968;5.658;2023-12-20T06:06:46;9.8;71.1
79750;SHT31;69233;51.968;5.658;2023-12-20T06:09:17;9.8;71.4
79750;SHT31;69233;51.968;5.658;2023-12-20T06:11:45;9.8;70.8
79750;SHT31;69233;51.968;5.658;2023-12-20T06:14:14;9.8;70.9
79750;SHT31;69233;51.968;5.658;2023-12-20T06:16:43;9.8;70.8
79750;SHT31;69233;51.968;5.658;2023-12-20T06:19:11;9.8;71.3
79750;SHT31;69233;51.968;5.658;2023-12-20T06:21:40;9.7;70.6
79750;SHT31;69233;51.968;5.658;2023-12-20T06:24:09;9.7;71.4
79750;SHT31;69233;51.968;5.658;2023-12-20T06:26:38;9.7;70.6
79750;SHT31;69233;51.968;5.658;2023-12-20T06:29:06;9.7;71.2
79750;SHT31;69233;51.968;5.658;2023-12-20T06:31:36;9.7;72.0
79750;SHT31;69233;51.968;5.658;2023-12-20T06:34:05;9.7;71.6
79750;SHT31;69233;51.968;5.658;2023-12-20T06:36:34;9.7;71.4
79750;SHT31;69233;51.968;5.658;2023-12-20T06:39:02;9.7;71.6
79750;SHT31;69233;51.968;5.658;2023-12-20T06:41:31;9.7;71.4
79750;SHT31;69233;51.968;5.658;2023-12-20T06:43:59;9.7;71.2
79750;SHT31;69233;51.968;5.658;2023-12-20T06:46:28;9.7;70.8
79750;SHT31;69233;51.968;5.658;2023-12-20T06:48:57;9.7;70.3
79750;SHT31;69233;51.968;5.658;2023-12-20T06:51:26;9.7;71.4
79750;SHT31;69233;51.968;5.658;2023-12-20T06:53:54;9.7;70.8
79750;SHT31;69233;51.968;5.658;2023-12-20T06:56:25;9.7;70.7
79750;SHT31;69233;51.968;5.658;2023-12-20T06:58:54;9.7;70.7
79750;SHT31;69233;51.968;5.658;2023-12-20T07:01:25;9.7;70.6
79750;SHT31;69233;51.968;5.658;2023-12-20T07:03:53;9.7;71.4
79750;SHT31;69233;51.968;5.658;2023-12-20T07:06:22;9.7;71.2
79750;SHT31;69233;51.968;5.658;2023-12-20T07:08:52;9.7;71.7
79750;SHT31;69233;51.968;5.658;2023-12-20T07:11:21;9.7;71.5
79750;SHT31;69233;51.968;5.658;2023-12-20T07:13:49;9.7;70.9
79750;SHT31;69233;51.968;5.658;2023-12-20T07:16:18;9.6;71.3
79750;SHT31;69233;51.968;5.658;2023-12-20T07:18:46;9.6;70.9
79750;SHT31;69233;51.968;5.658;2023-12-20T07:21:15;9.6;71.2
79750;SHT31;69233;51.968;5.658;2023-12-20T07:23:43;9.6;71.4
79750;SHT31;69233;51.968;5.658;2023-12-20T07:26:12;9.6;71.2
79750;SHT31;69233;51.968;5.658;2023-12-20T07:28:41;9.6;70.9
79750;SHT31;69233;51.968;5.658;2023-12-20T07:31:10;9.6;71.8
79750;SHT31;69233;51.968;5.658;2023-12-20T07:33:39;9.6;72.1
79750;SHT31;69233;51.968;5.658;2023-12-20T07:36:09;9.6;71.3
79750;SHT31;69233;51.968;5.658;2023-12-20T07:38:38;9.6;71.8
79750;SHT31;69233;51.968;5.658;2023-12-20T07:41:09;9.7;71.7
79750;SHT31;69233;51.968;5.658;2023-12-20T07:43:38;9.7;71.5
79750;SHT31;69233;51.968;5.658;2023-12-20T07:46:08;9.7;72.0
79750;SHT31;69233;51.968;5.658;2023-12-20T07:48:38;9.7;71.2
79750;SHT31;69233;51.968;5.658;2023-12-20T07:51:07;9.7;71.6
79750;SHT31;69233;51.968;5.658;2023-12-20T07:53:36;9.7;71.9
79750;SHT31;69233;51.968;5.658;2023-12-20T07:56:15;9.7;72.3
79750;SHT31;69233;51.968;5.658;2023-12-20T07:58:44;9.7;72.1
79750;SHT31;69233;51.968;5.658;2023-12-20T08:01:15;9.7;71.8
79750;SHT31;69233;51.968;5.658;2023-12-20T08:03:44;9.7;71.7
79750;SHT31;69233;51.968;5.658;2023-12-20T08:06:15;9.8;71.4
79750;SHT31;69233;51.968;5.658;2023-12-20T08:08:44;9.8;71.3
79750;SHT31;69233;51.968;5.658;2023-12-20T08:11:13;9.8;71.5
79750;SHT31;69233;51.968;5.658;2023-12-20T08:13:41;9.8;71.4
79750;SHT31;69233;51.968;5.658;2023-12-20T08:16:10;9.8;71.2
79750;SHT31;69233;51.968;5.658;2023-12-20T08:18:39;9.8;71.5
79750;SHT31;69233;51.968;5.658;2023-12-20T08:21:08;9.8;71.8
79750;SHT31;69233;51.968;5.658;2023-12-20T08:23:40;9.8;71.1
79750;SHT31;69233;51.968;5.658;2023-12-20T08:26:08;9.9;70.8
79750;SHT31;69233;51.968;5.658;2023-12-20T08:28:37;9.9;71.4
79750;SHT31;69233;51.968;5.658;2023-12-20T08:31:07;9.9;70.5
79750;SHT31;69233;51.968;5.658;2023-12-20T08:33:41;9.9;70.9
79750;SHT31;69233;51.968;5.658;2023-12-20T08:36:10;9.9;70.5
79750;SHT31;69233;51.968;5.658;2023-12-20T08:38:39;9.9;70.2
79750;SHT31;69233;51.968;5.658;2023-12-20T08:41:08;9.9;70.9
79750;SHT31;69233;51.968;5.658;2023-12-20T08:43:36;9.9;71.1
79750;SHT31;69233;51.968;5.658;2023-12-20T08:46:06;10.0;70.9
79750;SHT31;69233;51.968;5.658;2023-12-20T08:48:36;10.0;71.2
79750;SHT31;69233;51.968;5.658;2023-12-20T08:51:06;10.1;70.8
79750;SHT31;69233;51.968;5.658;2023-12-20T08:53:35;10.2;70.2
79750;SHT31;69233;51.968;5.658;2023-12-20T08:56:05;10.2;70.2
79750;SHT31;69233;51.968;5.658;2023-12-20T08:58:33;10.2;70.1
79750;SHT31;69233;51.968;5.658;2023-12-20T09:01:02;10.2;69.3
79750;SHT31;69233;51.968;5.658;2023-12-20T09:03:31;10.2;70.5
79750;SHT31;69233;51.968;5.658;2023-12-20T09:06:00;10.2;70.2
79750;SHT31;69233;51.968;5.658;2023-12-20T09:08:29;10.2;70.7
79750;SHT31;69233;51.968;5.658;2023-12-20T09:10:57;10.2;71.0
79750;SHT31;69233;51.968;5.658;2023-12-20T09:13:27;10.2;70.8
79750;SHT31;69233;51.968;5.658;2023-12-20T09:15:55;10.1;71.2
79750;SHT31;69233;51.968;5.658;2023-12-20T09:18:24;10.1;71.8
79750;SHT31;69233;51.968;5.658;2023-12-20T09:20:53;10.1;71.8
79750;SHT31;69233;51.968;5.658;2023-12-20T09:23:22;10.1;72.2
79750;SHT31;69233;51.968;5.658;2023-12-20T09:25:51;10.0;72.1
79750;SHT31;69233;51.968;5.658;2023-12-20T09:28:19;10.0;72.8
79750;SHT31;69233;51.968;5.658;2023-12-20T09:30:48;10.0;72.9
79750;SHT31;69233;51.968;5.658;2023-12-20T09:33:18;9.9;73.2
79750;SHT31;69233;51.968;5.658;2023-12-20T09:35:46;9.9;73.5
79750;SHT31;69233;51.968;5.658;2023-12-20T09:38:15;9.9;73.3
79750;SHT31;69233;51.968;5.658;2023-12-20T09:40:44;9.9;74.4
79750;SHT31;69233;51.968;5.658;2023-12-20T09:43:15;9.9;73.9
79750;SHT31;69233;51.968;5.658;2023-12-20T09:45:46;9.9;74.5
79750;SHT31;69233;51.968;5.658;2023-12-20T09:48:17;9.9;74.2
79750;SHT31;69233;51.968;5.658;2023-12-20T09:50:47;9.9;74.2
79750;SHT31;69233;51.968;5.658;2023-12-20T09:53:18;9.9;74.3
79750;SHT31;69233;51.968;5.658;2023-12-20T09:55:50;9.9;74.5
79750;SHT31;69233;51.968;5.658;2023-12-20T09:58:19;9.9;74.1
79750;SHT31;69233;51.968;5.658;2023-12-20T10:00:48;9.9;74.4
79750;SHT31;69233;51.968;5.658;2023-12-20T10:03:25;9.9;74.2
79750;SHT31;69233;51.968;5.658;2023-12-20T10:05:56;9.9;73.9
79750;SHT31;69233;51.968;5.658;2023-12-20T10:08:27;9.9;74.6
79750;SHT31;69233;51.968;5.658;2023-12-20T10:10:58;10.0;73.9
79750;SHT31;69233;51.968;5.658;2023-12-20T10:13:29;10.0;74.4
79750;SHT31;69233;51.968;5.658;2023-12-20T10:15:57;10.0;73.7
79750;SHT31;69233;51.968;5.658;2023-12-20T10:18:28;10.0;73.7
79750;SHT31;69233;51.968;5.658;2023-12-20T10:20:59;10.1;73.7
79750;SHT31;69233;51.968;5.658;2023-12-20T10:23:29;10.1;74.0
79750;SHT31;69233;51.968;5.658;2023-12-20T10:25:59;10.1;73.9
79750;SHT31;69233;51.968;5.658;2023-12-20T10:28:35;10.2;73.6
79750;SHT31;69233;51.968;5.658;2023-12-20T10:31:06;10.2;74.7
79750;SHT31;69233;51.968;5.658;2023-12-20T10:33:34;10.3;74.4
79750;SHT31;69233;51.968;5.658;2023-12-20T10:36:04;10.3;74.5
79750;SHT31;69233;51.968;5.658;2023-12-20T10:38:36;10.3;73.8
79750;SHT31;69233;51.968;5.658;2023-12-20T10:41:06;10.4;73.8
79750;SHT31;69233;51.968;5.658;2023-12-20T10:43:37;10.4;74.1
79750;SHT31;69233;51.968;5.658;2023-12-20T10:46:06;10.4;73.4
79750;SHT31;69233;51.968;5.658;2023-12-20T10:48:36;10.4;73.3
79750;SHT31;69233;51.968;5.658;2023-12-20T10:51:06;10.5;73.5
79750;SHT31;69233;51.968;5.658;2023-12-20T10:53:36;10.5;73.8
79750;SHT31;69233;51.968;5.658;2023-12-20T10:56:08;10.5;73.2
79750;SHT31;69233;51.968;5.658;2023-12-20T10:58:42;10.5;74.1
79750;SHT31;69233;51.968;5.658;2023-12-20T11:01:13;10.6;75.3
79750;SHT31;69233;51.968;5.658;2023-12-20T11:03:47;10.6;74.0
79750;SHT31;69233;51.968;5.658;2023-12-20T11:06:24;10.7;73.7
79750;SHT31;69233;51.968;5.658;2023-12-20T11:09:01;10.7;71.9
79750;SHT31;69233;51.968;5.658;2023-12-20T11:11:42;10.8;72.3
79750;SHT31;69233;51.968;5.658;2023-12-20T11:14:18;10.8;71.4
79750;SHT31;69233;51.968;5.658;2023-12-20T11:16:47;10.9;72.4
79750;SHT31;69233;51.968;5.658;2023-12-20T11:19:17;10.9;71.9
79750;SHT31;69233;51.968;5.658;2023-12-20T11:21:46;10.9;73.0
79750;SHT31;69233;51.968;5.658;2023-12-20T11:24:15;11.0;71.7
79750;SHT31;69233;51.968;5.658;2023-12-20T11:26:50;11.0;71.0
79750;SHT31;69233;51.968;5.658;2023-12-20T11:29:36;11.0;71.9
79750;SHT31;69233;51.968;5.658;2023-12-20T11:32:29;11.1;70.3
79750;SHT31;69233;51.968;5.658;2023-12-20T11:34:59;11.1;69.6
79750;SHT31;69233;51.968;5.658;2023-12-20T11:37:32;11.1;70.8
79750;SHT31;69233;51.968;5.658;2023-12-20T11:40:06;11.2;69.2
79750;SHT31;69233;51.968;5.658;2023-12-20T11:42:40;11.2;69.7
79750;SHT31;69233;51.968;5.658;2023-12-20T11:45:11;11.3;70.1
79750;SHT31;69233;51.968;5.658;2023-12-20T11:47:42;11.4;70.2
79750;SHT31;69233;51.968;5.658;2023-12-20T11:50:11;11.5;68.7
79750;SHT31;69233;51.968;5.658;2023-12-20T11:52:39;11.6;69.1
79750;SHT31;69233;51.968;5.658;2023-12-20T11:55:10;11.7;68.1
79750;SHT31;69233;51.968;5.658;2023-12-20T11:57:39;11.7;66.6
79750;SHT31;69233;51.968;5.658;2023-12-20T12:00:08;11.7;66.1
79750;SHT31;69233;51.968;5.658;2023-12-20T12:02:37;11.8;66.0
79750;SHT31;69233;51.968;5.658;2023-12-20T12:05:06;11.8;66.2
79750;SHT31;69233;51.968;5.658;2023-12-20T12:07:35;11.7;67.1
79750;SHT31;69233;51.968;5.658;2023-12-20T12:10:04;11.7;66.5
79750;SHT31;69233;51.968;5.658;2023-12-20T12:12:34;11.8;68.5
79750;SHT31;69233;51.968;5.658;2023-12-20T12:15:03;11.8;67.9
79750;SHT31;69233;51.968;5.658;2023-12-20T12:17:33;11.8;67.4
79750;SHT31;69233;51.968;5.658;2023-12-20T12:20:06;11.8;67.5
79750;SHT31;69233;51.968;5.658;2023-12-20T12:22:36;11.8;67.7
79750;SHT31;69233;51.968;5.658;2023-12-20T12:25:12;11.8;67.2
79750;SHT31;69233;51.968;5.658;2023-12-20T12:27:43;11.8;68.1
79750;SHT31;69233;51.968;5.658;2023-12-20T12:30:11;11.9;68.1
79750;SHT31;69233;51.968;5.658;2023-12-20T12:32:41;11.9;67.7
79750;SHT31;69233;51.968;5.658;2023-12-20T12:35:12;11.9;67.3
79750;SHT31;69233;51.968;5.658;2023-12-20T12:37:41;11.9;67.3
79750;SHT31;69233;51.968;5.658;2023-12-20T12:40:13;11.9;67.9
79750;SHT31;69233;51.968;5.658;2023-12-20T12:42:43;11.8;67.3
79750;SHT31;69233;51.968;5.658;2023-12-20T12:45:12;11.8;67.6
79750;SHT31;69233;51.968;5.658;2023-12-20T12:47:42;11.8;68.2
79750;SHT31;69233;51.968;5.658;2023-12-20T12:50:11;11.8;67.6
79750;SHT31;69233;51.968;5.658;2023-12-20T12:52:39;11.7;68.8
79750;SHT31;69233;51.968;5.658;2023-12-20T12:55:08;11.7;69.2
79750;SHT31;69233;51.968;5.658;2023-12-20T12:57:37;11.7;69.1
79750;SHT31;69233;51.968;5.658;2023-12-20T13:00:06;11.7;69.1
79750;SHT31;69233;51.968;5.658;2023-12-20T13:02:35;11.6;68.9
79750;SHT31;69233;51.968;5.658;2023-12-20T13:05:04;11.6;69.5
79750;SHT31;69233;51.968;5.658;2023-12-20T13:07:34;11.6;68.6
79750;SHT31;69233;51.968;5.658;2023-12-20T13:10:04;11.6;69.0
79750;SHT31;69233;51.968;5.658;2023-12-20T13:12:32;11.6;70.6
79750;SHT31;69233;51.968;5.658;2023-12-20T13:15:01;11.6;68.6
79750;SHT31;69233;51.968;5.658;2023-12-20T13:17:30;11.6;68.6
79750;SHT31;69233;51.968;5.658;2023-12-20T13:19:58;11.6;68.6
79750;SHT31;69233;51.968;5.658;2023-12-20T13:22:27;11.6;68.5
79750;SHT31;69233;51.968;5.658;2023-12-20T13:24:56;11.6;68.2
79750;SHT31;69233;51.968;5.658;2023-12-20T13:27:25;11.7;67.5
79750;SHT31;69233;51.968;5.658;2023-12-20T13:29:54;11.6;68.3
79750;SHT31;69233;51.968;5.658;2023-12-20T13:32:23;11.6;68.9
79750;SHT31;69233;51.968;5.658;2023-12-20T13:34:51;11.6;69.6
79750;SHT31;69233;51.968;5.658;2023-12-20T13:37:20;11.6;67.9
79750;SHT31;69233;51.968;5.658;2023-12-20T13:39:48;11.6;68.0
79750;SHT31;69233;51.968;5.658;2023-12-20T13:42:17;11.6;69.3
79750;SHT31;69233;51.968;5.658;2023-12-20T13:44:47;11.6;68.2
79750;SHT31;69233;51.968;5.658;2023-12-20T13:47:15;11.6;68.1
79750;SHT31;69233;51.968;5.658;2023-12-20T13:49:43;11.6;68.9
79750;SHT31;69233;51.968;5.658;2023-12-20T13:52:14;11.6;68.6
79750;SHT31;69233;51.968;5.658;2023-12-20T13:54:43;11.6;69.2
79750;SHT31;69233;51.968;5.658;2023-12-20T13:57:11;11.7;67.9
79750;SHT31;69233;51.968;5.658;2023-12-20T13:59:40;11.7;68.5
79750;SHT31;69233;51.968;5.658;2023-12-20T14:02:08;11.7;68.4
79750;SHT31;69233;51.968;5.658;2023-12-20T14:04:37;11.7;68.3
79750;SHT31;69233;51.968;5.658;2023-12-20T14:07:07;11.7;67.8
79750;SHT31;69233;51.968;5.658;2023-12-20T14:09:36;11.7;67.4
79750;SHT31;69233;51.968;5.658;2023-12-20T14:12:05;11.7;67.7
79750;SHT31;69233;51.968;5.658;2023-12-20T14:14:35;11.7;68.7
79750;SHT31;69233;51.968;5.658;2023-12-20T14:17:07;11.7;67.9
79750;SHT31;69233;51.968;5.658;2023-12-20T14:19:36;11.7;67.1
79750;SHT31;69233;51.968;5.658;2023-12-20T14:22:05;11.7;67.7
79750;SHT31;69233;51.968;5.658;2023-12-20T14:24:34;11.7;67.6
79750;SHT31;69233;51.968;5.658;2023-12-20T14:27:04;11.7;68.0
79750;SHT31;69233;51.968;5.658;2023-12-20T14:29:33;11.7;67.6
79750;SHT31;69233;51.968;5.658;2023-12-20T14:32:02;11.7;67.5
79750;SHT31;69233;51.968;5.658;2023-12-20T14:34:32;11.7;67.8
79750;SHT31;69233;51.968;5.658;2023-12-20T14:37:01;11.7;68.6
79750;SHT31;69233;51.968;5.658;2023-12-20T14:39:30;11.7;68.9
79750;SHT31;69233;51.968;5.658;2023-12-20T14:41:58;11.8;69.0
79750;SHT31;69233;51.968;5.658;2023-12-20T14:44:29;11.8;67.5
79750;SHT31;69233;51.968;5.658;2023-12-20T14:46:59;11.9;67.8
79750;SHT31;69233;51.968;5.658;2023-12-20T14:49:28;12.0;67.7
79750;SHT31;69233;51.968;5.658;2023-12-20T14:52:00;12.0;67.7
79750;SHT31;69233;51.968;5.658;2023-12-20T14:54:28;12.0;66.4
79750;SHT31;69233;51.968;5.658;2023-12-20T14:56:57;12.0;66.1
79750;SHT31;69233;51.968;5.658;2023-12-20T14:59:26;12.0;66.5
79750;SHT31;69233;51.968;5.658;2023-12-20T15:01:55;11.9;66.4
79750;SHT31;69233;51.968;5.658;2023-12-20T15:04:23;11.9;66.2
79750;SHT31;69233;51.968;5.658;2023-12-20T15:06:55;11.9;67.6
79750;SHT31;69233;51.968;5.658;2023-12-20T15:09:23;11.9;66.8
79750;SHT31;69233;51.968;5.658;2023-12-20T15:11:53;11.8;67.3
79750;SHT31;69233;51.968;5.658;2023-12-20T15:14:21;11.8;67.7
79750;SHT31;69233;51.968;5.658;2023-12-20T15:16:50;11.8;67.8
79750;SHT31;69233;51.968;5.658;2023-12-20T15:19:19;11.8;68.0
79750;SHT31;69233;51.968;5.658;2023-12-20T15:21:48;11.8;68.2
79750;SHT31;69233;51.968;5.658;2023-12-20T15:24:17;11.7;67.9
79750;SHT31;69233;51.968;5.658;2023-12-20T15:26:51;11.7;68.4
79750;SHT31;69233;51.968;5.658;2023-12-20T15:29:20;11.7;68.3
79750;SHT31;69233;51.968;5.658;2023-12-20T15:31:49;11.7;68.1
79750;SHT31;69233;51.968;5.658;2023-12-20T15:34:18;11.6;68.2
79750;SHT31;69233;51.968;5.658;2023-12-20T15:36:46;11.6;69.1
79750;SHT31;69233;51.968;5.658;2023-12-20T15:39:16;11.6;69.5
79750;SHT31;69233;51.968;5.658;2023-12-20T15:41:44;11.6;69.3
79750;SHT31;69233;51.968;5.658;2023-12-20T15:44:13;11.6;69.5
79750;SHT31;69233;51.968;5.658;2023-12-20T15:46:45;11.5;69.8
79750;SHT31;69233;51.968;5.658;2023-12-20T15:49:14;11.5;70.0
79750;SHT31;69233;51.968;5.658;2023-12-20T15:51:45;11.5;69.7
79750;SHT31;69233;51.968;5.658;2023-12-20T15:54:16;11.4;70.2
79750;SHT31;69233;51.968;5.658;2023-12-20T15:56:45;11.4;70.9
79750;SHT31;69233;51.968;5.658;2023-12-20T15:59:14;11.4;70.5
79750;SHT31;69233;51.968;5.658;2023-12-20T16:01:44;11.3;70.9
79750;SHT31;69233;51.968;5.658;2023-12-20T16:04:15;11.3;71.3
79750;SHT31;69233;51.968;5.658;2023-12-20T16:06:44;11.3;71.7
79750;SHT31;69233;51.968;5.658;2023-12-20T16:09:12;11.2;72.2
79750;SHT31;69233;51.968;5.658;2023-12-20T16:11:41;11.2;72.2
79750;SHT31;69233;51.968;5.658;2023-12-20T16:14:11;11.1;72.4
79750;SHT31;69233;51.968;5.658;2023-12-20T16:16:44;11.1;72.2
79750;SHT31;69233;51.968;5.658;2023-12-20T16:19:13;11.0;72.8
79750;SHT31;69233;51.968;5.658;2023-12-20T16:21:43;11.0;73.5
79750;SHT31;69233;51.968;5.658;2023-12-20T16:24:12;11.0;73.4
79750;SHT31;69233;51.968;5.658;2023-12-20T16:26:40;10.9;74.1